Time;durP1;ratioP1;P1;durP2;ratioP2;P2;SDS_P1;SDS_P2;PMS_P1;PMS_P2;Temp;Humidity;BMP_temperature;BMP_pressure;BME280_temperature;BME280_humidity;BME280_pressure;Samples;Min_cycle;Max_cycle;Signal;HPM_P1;HPM_P2
2023/05/08 00:01:10;;;;;;;;;;;13.40;99.90;;;;;;5085286;28;20003;-39
2023/05/08 00:03:37;;;;;;;;;;;13.40;99.90;;;;;;5089726;28;19942;-37
2023/05/08 00:06:04;;;;;;;;;;;13.40;99.90;;;;;;5087862;28;19962;-38
2023/05/08 00:08:30;;;;;;;;;;;13.40;99.90;;;;;;5078709;28;20356;-38
2023/05/08 00:11:02;;;;;;;;;;;13.30;99.90;;;;;;5096559;28;20366;-37
2023/05/08 00:13:28;;;;;;;;;;;13.30;99.90;;;;;;5059416;28;19972;-38
2023/05/08 00:15:55;;;;;;;;;;;13.30;99.90;;;;;;5069657;28;20030;-38
2023/05/08 00:18:23;;;;;;;;;;;13.30;99.90;;;;;;5092016;28;19967;-38
2023/05/08 00:20:50;;;;;;;;;;;13.30;99.90;;;;;;5071965;28;20411;-37
2023/05/08 00:23:16;;;;;;;;;;;13.20;99.90;;;;;;5057709;28;19992;-38
2023/05/08 00:25:43;;;;;;;;;;;13.20;99.90;;;;;;5088610;28;19972;-38
2023/05/08 00:28:10;;;;;;;;;;;13.20;99.90;;;;;;5092216;28;19948;-38
2023/05/08 00:30:36;;;;;;;;;;;13.20;99.90;;;;;;5100490;28;19993;-38
2023/05/08 00:33:03;;;;;;;;;;;13.20;99.90;;;;;;5094956;28;20016;-40
2023/05/08 00:35:31;;;;;;;;;;;13.20;99.90;;;;;;5079233;28;19942;-37
2023/05/08 00:37:58;;;;;;;;;;;13.20;99.90;;;;;;5076277;28;19980;-38
2023/05/08 00:40:24;;;;;;;;;;;13.20;99.90;;;;;;5076058;28;19990;-38
2023/05/08 00:42:51;;;;;;;;;;;13.20;99.90;;;;;;5089943;28;19935;-37
2023/05/08 00:45:18;;;;;;;;;;;13.20;99.90;;;;;;5097470;28;19947;-38
2023/05/08 00:47:45;;;;;;;;;;;13.10;99.90;;;;;;5060358;28;20472;-38
2023/05/08 00:50:11;;;;;;;;;;;13.10;99.90;;;;;;5102029;28;20305;-45
2023/05/08 00:52:39;;;;;;;;;;;13.10;99.90;;;;;;5086649;28;19983;-38
2023/05/08 00:55:06;;;;;;;;;;;13.10;99.90;;;;;;5083467;28;20284;-39
2023/05/08 00:57:33;;;;;;;;;;;13.10;99.90;;;;;;5073916;28;19943;-39
2023/05/08 01:00:00;;;;;;;;;;;13.10;99.90;;;;;;5075362;28;19924;-39
2023/05/08 01:02:26;;;;;;;;;;;13.00;99.90;;;;;;5073260;28;19940;-37
2023/05/08 01:04:53;;;;;;;;;;;13.00;99.90;;;;;;5093236;28;20003;-39
2023/05/08 01:07:20;;;;;;;;;;;13.00;99.90;;;;;;5091440;28;20046;-37
2023/05/08 01:09:48;;;;;;;;;;;12.90;99.90;;;;;;5093438;28;19988;-37
2023/05/08 01:12:16;;;;;;;;;;;12.90;99.90;;;;;;5092285;28;19940;-37
2023/05/08 01:14:47;;;;;;;;;;;12.80;99.90;;;;;;5079879;28;19940;-38
2023/05/08 01:17:16;;;;;;;;;;;12.80;99.90;;;;;;5069762;28;20490;-38
2023/05/08 01:19:55;;;;;;;;;;;12.80;99.90;;;;;;5097759;28;19940;-38
2023/05/08 01:22:38;;;;;;;;;;;12.80;99.90;;;;;;5077879;28;20278;-38
2023/05/08 01:25:19;;;;;;;;;;;12.80;99.90;;;;;;5091182;28;20033;-38
2023/05/08 01:28:01;;;;;;;;;;;12.80;99.90;;;;;;5092498;28;20008;-37
2023/05/08 01:30:33;;;;;;;;;;;12.70;99.90;;;;;;5087714;28;20369;-38
2023/05/08 01:33:02;;;;;;;;;;;12.60;99.90;;;;;;5091443;28;20353;-38
2023/05/08 01:35:30;;;;;;;;;;;12.60;99.90;;;;;;5091217;28;19944;-38
2023/05/08 01:37:58;;;;;;;;;;;12.60;99.90;;;;;;5081757;28;19936;-38
2023/05/08 01:40:26;;;;;;;;;;;12.50;99.90;;;;;;5088393;28;19946;-37
2023/05/08 01:42:53;;;;;;;;;;;12.50;99.90;;;;;;5056678;28;20059;-38
2023/05/08 01:45:21;;;;;;;;;;;12.50;99.90;;;;;;5089334;28;19944;-39
2023/05/08 01:47:49;;;;;;;;;;;12.50;99.90;;;;;;5086313;28;19944;-38
2023/05/08 01:50:18;;;;;;;;;;;12.40;99.90;;;;;;5071547;28;20461;-39
2023/05/08 01:52:45;;;;;;;;;;;12.40;99.90;;;;;;5095592;28;19971;-38
2023/05/08 01:55:12;;;;;;;;;;;12.40;99.90;;;;;;5071365;28;20381;-38
2023/05/08 01:57:40;;;;;;;;;;;12.40;99.90;;;;;;5076603;28;19962;-38
2023/05/08 02:00:07;;;;;;;;;;;12.30;99.90;;;;;;5070217;28;19946;-38
2023/05/08 02:02:34;;;;;;;;;;;12.30;99.90;;;;;;5075032;28;20006;-37
2023/05/08 02:05:01;;;;;;;;;;;12.30;99.90;;;;;;5089107;28;19945;-37
2023/05/08 02:07:29;;;;;;;;;;;12.30;99.90;;;;;;5078396;28;19940;-38
2023/05/08 02:09:55;;;;;;;;;;;12.30;99.90;;;;;;5077961;28;19956;-38
2023/05/08 02:12:22;;;;;;;;;;;12.30;99.90;;;;;;5087558;28;19939;-37
2023/05/08 02:14:49;;;;;;;;;;;12.20;99.90;;;;;;5079098;28;19987;-39
2023/05/08 02:17:15;;;;;;;;;;;12.20;99.90;;;;;;5106145;28;19998;-38
2023/05/08 02:19:42;;;;;;;;;;;12.20;99.90;;;;;;5075641;28;20392;-38
2023/05/08 02:22:09;;;;;;;;;;;12.20;99.90;;;;;;5094805;28;19938;-39
2023/05/08 02:24:37;;;;;;;;;;;12.10;99.90;;;;;;5100271;28;19975;-38
2023/05/08 02:27:04;;;;;;;;;;;12.10;99.90;;;;;;5094350;28;19999;-38
2023/05/08 02:29:30;;;;;;;;;;;12.10;99.90;;;;;;5107420;28;19951;-38
2023/05/08 02:31:57;;;;;;;;;;;12.10;99.90;;;;;;5083917;28;19936;-37
2023/05/08 02:34:23;;;;;;;;;;;12.00;99.90;;;;;;5059673;28;20021;-38
2023/05/08 02:36:50;;;;;;;;;;;12.00;99.90;;;;;;5092280;28;20389;-37
2023/05/08 02:39:17;;;;;;;;;;;11.90;99.90;;;;;;5099077;28;19986;-38
2023/05/08 02:41:45;;;;;;;;;;;11.90;99.90;;;;;;5076305;28;19981;-39
2023/05/08 02:44:11;;;;;;;;;;;11.90;99.90;;;;;;5094447;28;19988;-38
2023/05/08 02:46:39;;;;;;;;;;;11.80;99.90;;;;;;5077999;28;19997;-37
2023/05/08 02:49:07;;;;;;;;;;;11.80;99.90;;;;;;5092331;28;19991;-37
2023/05/08 02:51:38;;;;;;;;;;;11.80;99.90;;;;;;5093538;28;19941;-38
2023/05/08 02:54:05;;;;;;;;;;;11.80;99.90;;;;;;5089544;28;20314;-38
2023/05/08 02:56:34;;;;;;;;;;;11.80;99.90;;;;;;5093915;28;19945;-39
2023/05/08 02:59:04;;;;;;;;;;;11.80;99.90;;;;;;5094181;28;19986;-45
2023/05/08 03:01:31;;;;;;;;;;;11.70;99.90;;;;;;5099209;28;19990;-38
2023/05/08 03:04:00;;;;;;;;;;;11.70;99.90;;;;;;5088022;28;20352;-38
2023/05/08 03:06:26;;;;;;;;;;;11.70;99.90;;;;;;5093607;28;20026;-38
2023/05/08 03:08:53;;;;;;;;;;;11.70;99.90;;;;;;5093531;28;19935;-38
2023/05/08 03:11:21;;;;;;;;;;;11.70;99.90;;;;;;5072436;28;19958;-38
2023/05/08 03:13:48;;;;;;;;;;;11.70;99.90;;;;;;5095656;28;19973;-38
2023/05/08 03:16:16;;;;;;;;;;;11.80;99.90;;;;;;5098448;28;19966;-37
2023/05/08 03:18:45;;;;;;;;;;;11.70;99.90;;;;;;5095853;28;20349;-38
2023/05/08 03:21:12;;;;;;;;;;;11.70;99.90;;;;;;5093829;28;19942;-39
2023/05/08 03:23:39;;;;;;;;;;;11.70;99.90;;;;;;5074980;28;19986;-38
2023/05/08 03:26:05;;;;;;;;;;;11.70;99.90;;;;;;5076434;28;19995;-38
2023/05/08 03:28:32;;;;;;;;;;;11.70;99.90;;;;;;5102548;28;19961;-38
2023/05/08 03:30:59;;;;;;;;;;;11.70;99.90;;;;;;5089498;28;19962;-38
2023/05/08 03:33:27;;;;;;;;;;;11.70;99.90;;;;;;5106842;28;20049;-37
2023/05/08 03:35:53;;;;;;;;;;;11.70;99.90;;;;;;5092256;28;19938;-38
2023/05/08 03:38:21;;;;;;;;;;;11.70;99.90;;;;;;5093462;28;19942;-38
2023/05/08 03:40:48;;;;;;;;;;;11.70;99.90;;;;;;5105290;28;19934;-38
2023/05/08 03:43:14;;;;;;;;;;;11.60;99.90;;;;;;5083897;28;19950;-37
2023/05/08 03:45:41;;;;;;;;;;;11.60;99.90;;;;;;5094674;28;19988;-38
2023/05/08 03:48:08;;;;;;;;;;;11.60;99.90;;;;;;5073691;28;20036;-38
2023/05/08 03:50:36;;;;;;;;;;;11.50;99.90;;;;;;5076025;28;20379;-38
2023/05/08 03:53:03;;;;;;;;;;;11.50;99.90;;;;;;5089672;28;20036;-38
2023/05/08 03:55:30;;;;;;;;;;;11.50;99.90;;;;;;5085974;28;19941;-39
2023/05/08 03:57:57;;;;;;;;;;;11.50;99.90;;;;;;5082907;28;19939;-39
2023/05/08 04:00:27;;;;;;;;;;;11.40;99.90;;;;;;5085442;28;19938;-39
2023/05/08 04:02:56;;;;;;;;;;;11.50;99.90;;;;;;5109405;28;19938;-39
2023/05/08 04:05:24;;;;;;;;;;;11.50;99.90;;;;;;5075021;28;19949;-38
2023/05/08 04:07:53;;;;;;;;;;;11.40;99.90;;;;;;5062383;28;19989;-39
2023/05/08 04:10:21;;;;;;;;;;;11.40;99.90;;;;;;5075244;28;19958;-39
2023/05/08 04:12:51;;;;;;;;;;;11.40;99.90;;;;;;5089799;28;19944;-38
2023/05/08 04:15:18;;;;;;;;;;;11.40;99.90;;;;;;5056288;28;20025;-38
2023/05/08 04:17:45;;;;;;;;;;;11.40;99.90;;;;;;5060568;28;19954;-37
2023/05/08 04:20:13;;;;;;;;;;;11.30;99.90;;;;;;5085362;28;19941;-37
2023/05/08 04:22:40;;;;;;;;;;;11.30;99.90;;;;;;5077775;28;19980;-38
2023/05/08 04:25:08;;;;;;;;;;;11.30;99.90;;;;;;5092557;28;20179;-38
2023/05/08 04:27:35;;;;;;;;;;;11.20;99.90;;;;;;5066160;28;19935;-38
2023/05/08 04:30:02;;;;;;;;;;;11.30;99.90;;;;;;5072410;28;20011;-38
2023/05/08 04:32:28;;;;;;;;;;;11.20;99.90;;;;;;5091955;28;19959;-38
2023/05/08 04:34:55;;;;;;;;;;;11.10;99.90;;;;;;5092621;28;20351;-38
2023/05/08 04:37:25;;;;;;;;;;;11.10;99.90;;;;;;5082417;28;20341;-38
2023/05/08 04:39:52;;;;;;;;;;;11.10;99.90;;;;;;5066495;28;20049;-38
2023/05/08 04:42:20;;;;;;;;;;;11.00;99.90;;;;;;5092119;28;20017;-38
2023/05/08 04:44:47;;;;;;;;;;;11.00;99.90;;;;;;5064571;28;19954;-39
2023/05/08 04:47:13;;;;;;;;;;;11.00;99.90;;;;;;5087489;28;19940;-39
2023/05/08 04:49:40;;;;;;;;;;;11.00;99.90;;;;;;5074636;28;19985;-38
2023/05/08 04:52:07;;;;;;;;;;;11.00;99.90;;;;;;5073694;28;19942;-39
2023/05/08 04:54:33;;;;;;;;;;;10.90;99.90;;;;;;5069805;28;19944;-37
2023/05/08 04:57:00;;;;;;;;;;;10.90;99.90;;;;;;5100003;28;19936;-38
2023/05/08 04:59:28;;;;;;;;;;;10.90;99.90;;;;;;5084024;28;19942;-37
2023/05/08 05:01:55;;;;;;;;;;;10.90;99.90;;;;;;5078871;28;19971;-37
2023/05/08 05:04:22;;;;;;;;;;;10.90;99.90;;;;;;5070108;28;19981;-39
2023/05/08 05:06:48;;;;;;;;;;;10.90;99.90;;;;;;5085813;28;19938;-38
2023/05/08 05:09:15;;;;;;;;;;;10.90;99.90;;;;;;5067853;28;20411;-37
2023/05/08 05:11:48;;;;;;;;;;;10.90;99.90;;;;;;5066171;28;19954;-38
2023/05/08 05:14:14;;;;;;;;;;;10.90;99.90;;;;;;5084903;28;20290;-38
2023/05/08 05:16:42;;;;;;;;;;;11.00;99.90;;;;;;5070253;28;20000;-38
2023/05/08 05:19:09;;;;;;;;;;;10.90;99.90;;;;;;5089397;28;19941;-39
2023/05/08 05:21:36;;;;;;;;;;;11.00;99.90;;;;;;5099103;28;20385;-37
2023/05/08 05:24:03;;;;;;;;;;;11.00;99.90;;;;;;5088976;28;20045;-38
2023/05/08 05:26:30;;;;;;;;;;;11.00;99.90;;;;;;5085127;28;20400;-38
2023/05/08 05:28:57;;;;;;;;;;;11.00;99.90;;;;;;5083234;28;19941;-38
2023/05/08 05:31:23;;;;;;;;;;;11.10;99.90;;;;;;5070598;28;19958;-38
2023/05/08 05:33:51;;;;;;;;;;;11.10;99.90;;;;;;5001866;22;19957;-37
2023/05/08 05:36:18;;;;;;;;;;;11.20;99.90;;;;;;5020806;28;19942;-37
2023/05/08 05:38:45;;;;;;;;;;;11.30;99.90;;;;;;5022072;28;20173;-38
2023/05/08 05:41:11;;;;;;;;;;;11.30;99.90;;;;;;5027952;28;19941;-37
2023/05/08 05:43:38;;;;;;;;;;;11.40;99.90;;;;;;5024156;28;19936;-37
2023/05/08 05:46:05;;;;;;;;;;;11.50;99.90;;;;;;5029357;28;19943;-37
2023/05/08 05:48:32;;;;;;;;;;;11.60;99.90;;;;;;5026909;28;19975;-37
2023/05/08 05:51:00;;;;;;;;;;;11.70;99.90;;;;;;5024715;28;20030;-37
2023/05/08 05:53:27;;;;;;;;;;;11.70;99.90;;;;;;5025427;28;20424;-37
2023/05/08 05:55:54;;;;;;;;;;;11.80;99.90;;;;;;5028988;28;19962;-38
2023/05/08 05:58:20;;;;;;;;;;;11.90;99.90;;;;;;5029245;28;20355;-39
2023/05/08 06:00:47;;;;;;;;;;;12.00;99.90;;;;;;5028574;28;19993;-39
2023/05/08 06:03:14;;;;;;;;;;;12.00;99.90;;;;;;5013756;28;20076;-38
2023/05/08 06:05:40;;;;;;;;;;;12.10;99.90;;;;;;5009454;28;19940;-38
2023/05/08 06:08:10;;;;;;;;;;;12.30;99.90;;;;;;5009301;28;19947;-38
2023/05/08 06:10:36;;;;;;;;;;;12.40;99.90;;;;;;5018699;28;19957;-38
2023/05/08 06:13:03;;;;;;;;;;;12.50;99.90;;;;;;5028103;28;19945;-38
2023/05/08 06:15:30;;;;;;;;;;;12.60;99.90;;;;;;5030370;28;19939;-38
2023/05/08 06:17:57;;;;;;;;;;;12.60;99.90;;;;;;5030303;28;19981;-38
2023/05/08 06:20:23;;;;;;;;;;;12.70;99.90;;;;;;5028462;28;19953;-39
2023/05/08 06:22:50;;;;;;;;;;;12.80;99.90;;;;;;5028762;28;19986;-35
2023/05/08 06:25:18;;;;;;;;;;;12.80;99.90;;;;;;5029789;28;20423;-38
2023/05/08 06:27:45;;;;;;;;;;;13.00;99.90;;;;;;5029320;28;19953;-38
2023/05/08 06:30:12;;;;;;;;;;;13.00;99.90;;;;;;5030213;28;19947;-38
2023/05/08 06:32:38;;;;;;;;;;;13.20;99.90;;;;;;5027907;28;20378;-38
2023/05/08 06:35:06;;;;;;;;;;;13.30;99.90;;;;;;5018265;28;19942;-39
2023/05/08 06:37:32;;;;;;;;;;;13.40;99.90;;;;;;5028141;28;20463;-37
2023/05/08 06:39:59;;;;;;;;;;;13.50;99.90;;;;;;5033825;28;20331;-38
2023/05/08 06:42:30;;;;;;;;;;;13.60;99.90;;;;;;5032631;28;19940;-38
2023/05/08 06:44:57;;;;;;;;;;;13.70;99.90;;;;;;5033262;28;20016;-38
2023/05/08 06:47:23;;;;;;;;;;;13.70;99.90;;;;;;5031125;28;19944;-37
2023/05/08 06:49:50;;;;;;;;;;;13.80;99.90;;;;;;5033226;28;19943;-36
2023/05/08 06:52:17;;;;;;;;;;;13.90;99.90;;;;;;5032042;28;19925;-37
2023/05/08 06:54:44;;;;;;;;;;;14.00;99.90;;;;;;5030469;28;20397;-38
2023/05/08 06:57:12;;;;;;;;;;;14.10;99.90;;;;;;5032154;28;20015;-38
2023/05/08 06:59:40;;;;;;;;;;;14.20;99.90;;;;;;5033079;28;20045;-37
2023/05/08 07:02:08;;;;;;;;;;;14.30;99.90;;;;;;5031418;28;20273;-37
2023/05/08 07:04:35;;;;;;;;;;;14.40;99.90;;;;;;5032376;28;20362;-37
2023/05/08 07:07:02;;;;;;;;;;;14.50;99.90;;;;;;5032079;28;20583;-38
2023/05/08 07:09:29;;;;;;;;;;;14.60;99.90;;;;;;5012918;28;19971;-37
2023/05/08 07:11:55;;;;;;;;;;;14.80;99.90;;;;;;5031495;28;19994;-38
2023/05/08 07:14:22;;;;;;;;;;;14.90;99.90;;;;;;5032240;28;19991;-38
2023/05/08 07:16:50;;;;;;;;;;;15.00;99.90;;;;;;5032614;28;19941;-38
2023/05/08 07:19:17;;;;;;;;;;;15.10;99.90;;;;;;5032788;28;19966;-38
2023/05/08 07:21:45;;;;;;;;;;;15.10;99.90;;;;;;5032737;28;20035;-38
2023/05/08 07:24:11;;;;;;;;;;;15.20;99.90;;;;;;5029460;28;19943;-38
2023/05/08 07:26:38;;;;;;;;;;;15.30;99.90;;;;;;5015117;28;19949;-38
2023/05/08 07:29:04;;;;;;;;;;;15.30;99.90;;;;;;5012710;28;19925;-38
2023/05/08 07:31:31;;;;;;;;;;;15.40;99.90;;;;;;5019405;28;20013;-39
2023/05/08 07:33:59;;;;;;;;;;;15.40;99.90;;;;;;5022499;28;20012;-38
2023/05/08 07:36:26;;;;;;;;;;;15.50;99.90;;;;;;5012495;28;20357;-37
2023/05/08 07:38:53;;;;;;;;;;;15.50;99.90;;;;;;5022484;28;19937;-39
2023/05/08 07:41:19;;;;;;;;;;;15.60;99.90;;;;;;5030886;28;20026;-39
2023/05/08 07:43:46;;;;;;;;;;;15.70;99.90;;;;;;5031938;28;19936;-39
2023/05/08 07:46:16;;;;;;;;;;;15.80;99.90;;;;;;5032230;28;19969;-39
2023/05/08 07:48:43;;;;;;;;;;;15.80;99.90;;;;;;5032035;28;20407;-39
2023/05/08 07:51:11;;;;;;;;;;;15.80;99.90;;;;;;5031254;28;19929;-38
2023/05/08 07:53:38;;;;;;;;;;;15.90;99.90;;;;;;5030203;28;19935;-37
2023/05/08 07:56:05;;;;;;;;;;;16.00;99.90;;;;;;5030486;28;19939;-38
2023/05/08 07:58:32;;;;;;;;;;;16.10;99.90;;;;;;5030593;28;19940;-39
2023/05/08 08:00:58;;;;;;;;;;;16.30;99.90;;;;;;5027387;28;20330;-39
2023/05/08 08:03:25;;;;;;;;;;;16.50;99.90;;;;;;5028796;28;19941;-39
2023/05/08 08:05:51;;;;;;;;;;;16.70;99.90;;;;;;5030305;28;19943;-39
2023/05/08 08:08:20;;;;;;;;;;;16.90;99.90;;;;;;5020309;28;20433;-37
2023/05/08 08:10:46;;;;;;;;;;;17.20;99.90;;;;;;5026311;28;20383;-38
2023/05/08 08:13:13;;;;;;;;;;;17.40;99.90;;;;;;5018379;28;19944;-36
2023/05/08 08:15:40;;;;;;;;;;;17.70;99.90;;;;;;5029279;28;20256;-38
2023/05/08 08:18:07;;;;;;;;;;;17.80;99.90;;;;;;5029587;28;19940;-37
2023/05/08 08:20:33;;;;;;;;;;;18.00;99.90;;;;;;5027504;28;19995;-37
2023/05/08 08:23:00;;;;;;;;;;;18.10;99.90;;;;;;5029389;28;19943;-37
2023/05/08 08:25:28;;;;;;;;;;;18.10;99.90;;;;;;5029024;28;19970;-37
2023/05/08 08:27:55;;;;;;;;;;;18.20;99.90;;;;;;5029610;28;19936;-38
2023/05/08 08:30:21;;;;;;;;;;;18.20;99.90;;;;;;5029708;28;20019;-38
2023/05/08 08:32:48;;;;;;;;;;;18.30;99.90;;;;;;5029924;28;20006;-37
2023/05/08 08:35:15;;;;;;;;;;;18.40;99.90;;;;;;5031252;28;20288;-37
2023/05/08 08:37:41;;;;;;;;;;;18.50;99.90;;;;;;5030589;28;19943;-37
2023/05/08 08:40:08;;;;;;;;;;;18.60;99.90;;;;;;5028096;28;19944;-37
2023/05/08 08:42:36;;;;;;;;;;;18.70;99.90;;;;;;5017861;28;19997;-38
2023/05/08 08:45:03;;;;;;;;;;;18.80;99.90;;;;;;5030726;28;19949;-38
2023/05/08 08:47:35;;;;;;;;;;;18.90;99.90;;;;;;5027524;28;20356;-38
2023/05/08 08:50:02;;;;;;;;;;;19.00;99.90;;;;;;5030692;28;20306;-38
2023/05/08 08:52:30;;;;;;;;;;;19.20;99.90;;;;;;5030278;28;20039;-38
2023/05/08 08:54:58;;;;;;;;;;;19.40;99.90;;;;;;5029347;28;19946;-38
2023/05/08 08:57:24;;;;;;;;;;;19.70;99.90;;;;;;5029423;28;20353;-38
2023/05/08 08:59:52;;;;;;;;;;;19.80;99.90;;;;;;5029840;28;20339;-38
2023/05/08 09:02:19;;;;;;;;;;;20.00;99.90;;;;;;5029346;28;19953;-38
2023/05/08 09:04:46;;;;;;;;;;;20.10;99.90;;;;;;5028670;28;19992;-37
2023/05/08 09:07:12;;;;;;;;;;;20.10;99.90;;;;;;5026325;28;19936;-38
2023/05/08 09:09:39;;;;;;;;;;;20.20;99.90;;;;;;5027403;28;19939;-38
2023/05/08 09:12:06;;;;;;;;;;;20.40;99.90;;;;;;5029191;28;20055;-38
2023/05/08 09:14:33;;;;;;;;;;;20.50;99.90;;;;;;5029274;28;20356;-38
2023/05/08 09:17:01;;;;;;;;;;;20.70;99.90;;;;;;5029500;28;20013;-38
2023/05/08 09:19:28;;;;;;;;;;;20.80;99.90;;;;;;5029454;28;20579;-37
2023/05/08 09:21:58;;;;;;;;;;;20.90;99.90;;;;;;5029621;28;20355;-38
2023/05/08 09:24:26;;;;;;;;;;;21.00;99.90;;;;;;5029770;28;19940;-38
2023/05/08 09:26:53;;;;;;;;;;;21.00;99.90;;;;;;5029643;28;19952;-38
2023/05/08 09:29:20;;;;;;;;;;;21.10;99.90;;;;;;5030787;28;19945;-38
2023/05/08 09:31:47;;;;;;;;;;;21.20;99.90;;;;;;5029025;28;19965;-38
2023/05/08 09:34:23;;;;;;;;;;;21.20;99.90;;;;;;5028735;28;19964;-37
2023/05/08 09:36:50;;;;;;;;;;;21.20;99.90;;;;;;5029895;28;19947;-38
2023/05/08 09:39:21;;;;;;;;;;;21.30;99.90;;;;;;5029652;28;19995;-39
2023/05/08 09:41:56;;;;;;;;;;;21.40;99.90;;;;;;5028222;28;19969;-38
2023/05/08 09:44:23;;;;;;;;;;;21.50;99.90;;;;;;5028879;28;19990;-38
2023/05/08 09:46:50;;;;;;;;;;;21.70;99.90;;;;;;5030011;28;19947;-38
2023/05/08 09:49:16;;;;;;;;;;;21.80;99.90;;;;;;5028705;28;19942;-38
2023/05/08 09:51:52;;;;;;;;;;;22.00;99.90;;;;;;5029961;28;20389;-38
2023/05/08 09:54:19;;;;;;;;;;;22.20;99.90;;;;;;5028324;28;19946;-37
2023/05/08 09:56:45;;;;;;;;;;;22.30;99.90;;;;;;5028771;28;19996;-38
2023/05/08 09:59:22;;;;;;;;;;;22.40;99.90;;;;;;5028511;28;19947;-38
2023/05/08 10:01:48;;;;;;;;;;;22.50;99.90;;;;;;5029501;28;19942;-38
2023/05/08 10:04:15;;;;;;;;;;;22.60;99.90;;;;;;5030241;28;19943;-38
2023/05/08 10:06:42;;;;;;;;;;;22.70;99.90;;;;;;5030068;28;19947;-38
2023/05/08 10:09:10;;;;;;;;;;;22.70;99.20;;;;;;5028659;28;19987;-38
2023/05/08 10:11:37;;;;;;;;;;;22.70;99.00;;;;;;5030850;28;20500;-38
2023/05/08 10:14:04;;;;;;;;;;;22.70;98.90;;;;;;5033066;28;20383;-38
2023/05/08 10:16:31;;;;;;;;;;;22.80;98.90;;;;;;5033077;28;19941;-38
2023/05/08 10:18:59;;;;;;;;;;;22.90;98.40;;;;;;5032974;28;20338;-38
2023/05/08 10:21:27;;;;;;;;;;;22.80;99.00;;;;;;5033910;28;19946;-38
2023/05/08 10:23:54;;;;;;;;;;;22.80;99.20;;;;;;5033975;28;20001;-38
2023/05/08 10:26:23;;;;;;;;;;;22.90;99.10;;;;;;5033581;28;19963;-38
2023/05/08 10:28:50;;;;;;;;;;;23.00;99.50;;;;;;5033518;28;19941;-39
2023/05/08 10:31:17;;;;;;;;;;;23.10;99.00;;;;;;5033293;28;19991;-38
2023/05/08 10:33:44;;;;;;;;;;;23.20;98.20;;;;;;5033022;28;19971;-36
2023/05/08 10:36:12;;;;;;;;;;;23.30;99.10;;;;;;5034048;28;19968;-37
2023/05/08 10:38:38;;;;;;;;;;;23.50;99.50;;;;;;5027244;28;20603;-37
2023/05/08 10:41:05;;;;;;;;;;;23.60;99.20;;;;;;5030641;28;19992;-38
2023/05/08 10:43:33;;;;;;;;;;;23.70;98.40;;;;;;5033363;28;19993;-37
2023/05/08 10:46:02;;;;;;;;;;;23.70;97.70;;;;;;5029272;28;19943;-37
2023/05/08 10:48:29;;;;;;;;;;;23.80;97.90;;;;;;5032047;28;19952;-37
2023/05/08 10:50:58;;;;;;;;;;;23.80;96.60;;;;;;5033829;28;19996;-37
2023/05/08 10:53:29;;;;;;;;;;;23.80;96.30;;;;;;5032501;28;20015;-37
2023/05/08 10:55:55;;;;;;;;;;;23.70;97.20;;;;;;5032536;28;19945;-38
2023/05/08 10:58:29;;;;;;;;;;;23.80;96.70;;;;;;5030372;28;19942;-38
2023/05/08 11:01:13;;;;;;;;;;;23.90;96.80;;;;;;5033741;28;20315;-38
2023/05/08 11:03:41;;;;;;;;;;;23.90;96.00;;;;;;5017074;28;20028;-38
2023/05/08 11:06:07;;;;;;;;;;;24.00;96.80;;;;;;5033439;28;20022;-39
2023/05/08 11:08:38;;;;;;;;;;;24.10;96.20;;;;;;5028395;28;19988;-38
2023/05/08 11:11:05;;;;;;;;;;;24.20;96.60;;;;;;5032757;28;20371;-38
2023/05/08 11:13:33;;;;;;;;;;;24.30;95.50;;;;;;5032670;28;20060;-38
2023/05/08 11:15:59;;;;;;;;;;;24.30;96.10;;;;;;5033963;28;19937;-38
2023/05/08 11:18:27;;;;;;;;;;;24.40;95.30;;;;;;5033460;28;19992;-39
2023/05/08 11:20:55;;;;;;;;;;;24.60;94.50;;;;;;5033595;28;19948;-38
2023/05/08 11:23:21;;;;;;;;;;;24.60;94.00;;;;;;5033080;28;20059;-39
2023/05/08 11:25:48;;;;;;;;;;;24.70;95.90;;;;;;5031924;28;20379;-39
2023/05/08 11:28:16;;;;;;;;;;;24.80;95.20;;;;;;5033951;28;19997;-38
2023/05/08 11:30:43;;;;;;;;;;;24.80;95.20;;;;;;5033614;28;19985;-39
2023/05/08 11:33:19;;;;;;;;;;;24.80;94.60;;;;;;5032933;28;20007;-38
2023/05/08 11:35:48;;;;;;;;;;;24.90;95.00;;;;;;5034692;28;20348;-39
2023/05/08 11:38:16;;;;;;;;;;;24.90;93.90;;;;;;5030382;28;20020;-38
2023/05/08 11:40:47;;;;;;;;;;;24.90;94.90;;;;;;5033000;28;20048;-38
2023/05/08 11:43:24;;;;;;;;;;;25.00;94.70;;;;;;5034310;28;19946;-38
2023/05/08 11:45:52;;;;;;;;;;;25.20;95.00;;;;;;5033238;28;19994;-39
2023/05/08 11:48:18;;;;;;;;;;;25.40;95.90;;;;;;5033956;28;19979;-37
2023/05/08 11:50:45;;;;;;;;;;;25.50;93.30;;;;;;5033404;28;19992;-38
2023/05/08 11:53:13;;;;;;;;;;;25.40;93.50;;;;;;5032658;28;19958;-38
2023/05/08 11:55:40;;;;;;;;;;;25.50;95.90;;;;;;5033145;28;20039;-37
2023/05/08 11:58:11;;;;;;;;;;;25.50;94.40;;;;;;5020809;28;19996;-38
2023/05/08 12:00:40;;;;;;;;;;;25.60;94.70;;;;;;5032179;28;19952;-38
2023/05/08 12:03:06;;;;;;;;;;;25.60;93.80;;;;;;5013156;28;20363;-38
2023/05/08 12:05:33;;;;;;;;;;;25.70;92.30;;;;;;5013992;28;19962;-37
2023/05/08 12:08:00;;;;;;;;;;;25.70;93.10;;;;;;5014175;28;19946;-38
2023/05/08 12:10:28;;;;;;;;;;;25.60;92.80;;;;;;5013781;28;19942;-37
2023/05/08 12:12:54;;;;;;;;;;;25.50;93.30;;;;;;5026635;28;20066;-38
2023/05/08 12:15:21;;;;;;;;;;;25.50;92.80;;;;;;5032577;28;20319;-37
2023/05/08 12:17:48;;;;;;;;;;;25.60;93.90;;;;;;5031361;28;20003;-39
2023/05/08 12:20:15;;;;;;;;;;;25.70;93.80;;;;;;5032143;28;20411;-38
2023/05/08 12:22:42;;;;;;;;;;;25.90;93.70;;;;;;5031487;28;20304;-38
2023/05/08 12:25:10;;;;;;;;;;;26.20;93.70;;;;;;5033523;28;19940;-38
2023/05/08 12:27:38;;;;;;;;;;;26.30;92.70;;;;;;5032210;28;19991;-38
2023/05/08 12:30:06;;;;;;;;;;;26.50;92.20;;;;;;5032316;28;19932;-38
2023/05/08 12:32:32;;;;;;;;;;;26.50;91.90;;;;;;5032894;28;19965;-38
2023/05/08 12:34:59;;;;;;;;;;;26.50;91.90;;;;;;5029735;28;19947;-38
2023/05/08 12:37:26;;;;;;;;;;;26.60;91.70;;;;;;5033087;28;19941;-38
2023/05/08 12:39:53;;;;;;;;;;;26.80;93.30;;;;;;5031068;28;19946;-38
2023/05/08 12:42:20;;;;;;;;;;;26.90;91.80;;;;;;5022189;28;20423;-38
2023/05/08 12:44:51;;;;;;;;;;;26.80;92.20;;;;;;5022293;28;19944;-38
2023/05/08 12:47:18;;;;;;;;;;;26.60;90.80;;;;;;5020242;28;20391;-38
2023/05/08 12:49:47;;;;;;;;;;;26.40;90.50;;;;;;5019058;28;19993;-38
2023/05/08 12:52:14;;;;;;;;;;;26.40;93.20;;;;;;5031382;28;19949;-38
2023/05/08 12:54:43;;;;;;;;;;;26.50;92.30;;;;;;5028338;28;19944;-38
2023/05/08 12:57:10;;;;;;;;;;;26.50;91.70;;;;;;5026097;28;20292;-38
2023/05/08 12:59:37;;;;;;;;;;;26.30;91.00;;;;;;5018547;28;19945;-38
2023/05/08 13:02:05;;;;;;;;;;;26.20;92.20;;;;;;5030432;28;19975;-38
2023/05/08 13:04:36;;;;;;;;;;;26.00;91.50;;;;;;5030402;28;19946;-38
2023/05/08 13:07:02;;;;;;;;;;;26.00;93.60;;;;;;5015491;28;19947;-38
2023/05/08 13:09:29;;;;;;;;;;;26.30;93.40;;;;;;5028097;28;20048;-38
2023/05/08 13:11:56;;;;;;;;;;;26.50;91.50;;;;;;5022654;28;20026;-38
2023/05/08 13:14:22;;;;;;;;;;;26.60;91.30;;;;;;5032101;28;20001;-38
2023/05/08 13:16:50;;;;;;;;;;;26.60;91.50;;;;;;5029788;28;19944;-38
2023/05/08 13:19:18;;;;;;;;;;;26.40;90.60;;;;;;5028506;28;20051;-39
2023/05/08 13:21:46;;;;;;;;;;;26.30;92.10;;;;;;5026682;28;19947;-38
2023/05/08 13:24:13;;;;;;;;;;;26.40;93.10;;;;;;5015316;28;19941;-38
2023/05/08 13:26:39;;;;;;;;;;;26.40;93.80;;;;;;5015493;28;19993;-38
2023/05/08 13:29:06;;;;;;;;;;;26.60;91.10;;;;;;5024929;28;20070;-38
2023/05/08 13:31:33;;;;;;;;;;;26.70;91.70;;;;;;5025695;28;19970;-38
2023/05/08 13:33:59;;;;;;;;;;;26.80;90.20;;;;;;5030007;28;20312;-38
2023/05/08 13:36:27;;;;;;;;;;;26.70;89.40;;;;;;5027321;28;19955;-38
2023/05/08 13:38:56;;;;;;;;;;;26.50;89.90;;;;;;5025378;28;19945;-38
2023/05/08 13:41:22;;;;;;;;;;;26.50;89.20;;;;;;5012903;28;19941;-38
2023/05/08 13:43:49;;;;;;;;;;;26.70;90.90;;;;;;5028852;28;19939;-37
2023/05/08 13:46:16;;;;;;;;;;;26.80;89.60;;;;;;5033337;28;19996;-37
2023/05/08 13:48:42;;;;;;;;;;;26.80;89.00;;;;;;5036125;28;20399;-37
2023/05/08 13:51:09;;;;;;;;;;;26.90;90.10;;;;;;5034732;28;20308;-37
2023/05/08 13:53:37;;;;;;;;;;;26.90;87.70;;;;;;5035554;28;19957;-38
2023/05/08 13:56:04;;;;;;;;;;;27.00;89.00;;;;;;5035338;28;19942;-37
2023/05/08 13:58:31;;;;;;;;;;;27.00;86.50;;;;;;5035066;28;20362;-37
2023/05/08 14:00:57;;;;;;;;;;;26.90;85.20;;;;;;5035625;28;20042;-37
2023/05/08 14:03:24;;;;;;;;;;;26.80;89.00;;;;;;5035006;28;19926;-38
2023/05/08 14:05:51;;;;;;;;;;;26.60;88.10;;;;;;5036411;28;19940;-38
2023/05/08 14:08:17;;;;;;;;;;;26.50;89.90;;;;;;5035206;28;20028;-38
2023/05/08 14:10:45;;;;;;;;;;;26.50;89.80;;;;;;5031959;28;19936;-39
2023/05/08 14:13:12;;;;;;;;;;;26.50;90.60;;;;;;5030277;28;19949;-38
2023/05/08 14:15:39;;;;;;;;;;;26.60;89.50;;;;;;5033339;28;19989;-38
2023/05/08 14:18:06;;;;;;;;;;;26.60;88.60;;;;;;5033337;28;19940;-38